Time;durP1;ratioP1;P1;durP2;ratioP2;P2;SDS_P1;SDS_P2;PMS_P1;PMS_P2;Temp;Humidity;BMP_temperature;BMP_pressure;BME280_temperature;BME280_humidity;BME280_pressure;Samples;Min_cycle;Max_cycle;Signal;HPM_P1;HPM_P2
2023/09/05 00:01:03;;;;;;;;;;;18.60;99.90;;;;;;6682994;88;20069;-78
2023/09/05 00:11:04;;;;;;;;;;;19.10;99.90;;;;;;6682297;88;20063;-78
2023/09/05 00:21:07;;;;;;;;;;;19.50;99.90;;;;;;6681373;89;20063;-78
2023/09/05 00:31:08;;;;;;;;;;;19.60;99.90;;;;;;6685870;89;20134;-78
2023/09/05 00:41:08;;;;;;;;;;;19.70;99.90;;;;;;6681622;89;20084;-77
2023/09/05 00:51:09;;;;;;;;;;;19.70;99.90;;;;;;6682022;89;20068;-78
2023/09/05 01:01:10;;;;;;;;;;;19.80;99.90;;;;;;6682055;88;20116;-77
2023/09/05 01:11:12;;;;;;;;;;;19.80;99.90;;;;;;6685067;88;20051;-77
2023/09/05 01:21:35;;;;;;;;;;;19.70;99.90;;;;;;6685975;88;20161;-78
2023/09/05 01:31:36;;;;;;;;;;;19.70;99.90;;;;;;6666706;89;20057;-76
2023/09/05 01:41:36;;;;;;;;;;;19.60;99.90;;;;;;6667430;89;20080;-78
2023/09/05 01:51:37;;;;;;;;;;;19.70;99.90;;;;;;6668983;89;20176;-78
2023/09/05 02:01:37;;;;;;;;;;;19.80;99.90;;;;;;6671792;89;20304;-77
2023/09/05 02:11:38;;;;;;;;;;;19.70;99.90;;;;;;6666890;89;20093;-76
2023/09/05 02:21:38;;;;;;;;;;;19.70;99.90;;;;;;6666393;89;20574;-77
2023/09/05 02:31:39;;;;;;;;;;;19.60;99.90;;;;;;6667483;89;20610;-78
2023/09/05 02:41:39;;;;;;;;;;;19.60;99.90;;;;;;6666982;89;20100;-77
2023/09/05 02:51:40;;;;;;;;;;;19.60;99.90;;;;;;6667763;89;20131;-77
2023/09/05 03:01:40;;;;;;;;;;;19.40;99.90;;;;;;6669939;89;20074;-76
2023/09/05 03:11:41;;;;;;;;;;;19.50;99.90;;;;;;6670446;89;20858;-77
2023/09/05 03:21:41;;;;;;;;;;;19.50;99.90;;;;;;6666145;89;20068;-76
2023/09/05 03:31:42;;;;;;;;;;;19.40;99.90;;;;;;6688621;88;20057;-76
2023/09/05 03:41:42;;;;;;;;;;;19.30;99.90;;;;;;6683961;88;20055;-78
2023/09/05 03:51:43;;;;;;;;;;;19.30;99.90;;;;;;6686030;88;20086;-77
2023/09/05 04:01:43;;;;;;;;;;;19.20;99.90;;;;;;6682693;88;20055;-77
2023/09/05 04:11:44;;;;;;;;;;;19.10;99.90;;;;;;6689515;78;20086;-76
2023/09/05 04:21:44;;;;;;;;;;;19.00;99.90;;;;;;6694423;88;20614;-77
2023/09/05 04:31:45;;;;;;;;;;;18.80;99.90;;;;;;6690348;88;20075;-76
2023/09/05 04:41:45;;;;;;;;;;;18.70;99.90;;;;;;6695235;88;20577;-76
2023/09/05 04:51:45;;;;;;;;;;;18.40;99.90;;;;;;6704220;88;20101;-78
2023/09/05 05:01:46;;;;;;;;;;;18.10;99.90;;;;;;6703843;88;20642;-77
2023/09/05 05:11:46;;;;;;;;;;;17.80;99.90;;;;;;6697946;88;20203;-77
2023/09/05 05:21:50;;;;;;;;;;;17.40;99.90;;;;;;6697145;88;20136;-77
2023/09/05 05:31:51;;;;;;;;;;;17.20;99.90;;;;;;6702087;88;20068;-77
2023/09/05 05:41:51;;;;;;;;;;;17.20;99.90;;;;;;6703088;88;20509;-77
2023/09/05 05:51:52;;;;;;;;;;;17.20;99.90;;;;;;6695366;88;20552;-77
2023/09/05 06:01:52;;;;;;;;;;;17.50;99.90;;;;;;6691621;88;20586;-78
2023/09/05 06:11:53;;;;;;;;;;;18.10;99.90;;;;;;6685562;88;20204;-80
2023/09/05 06:21:54;;;;;;;;;;;18.80;99.90;;;;;;6690011;88;20118;-79
2023/09/05 06:31:55;;;;;;;;;;;19.40;99.90;;;;;;6690175;88;20048;-79
2023/09/05 06:41:55;;;;;;;;;;;19.90;99.90;;;;;;6691456;88;20053;-80
2023/09/05 06:51:56;;;;;;;;;;;20.20;99.90;;;;;;6693656;88;20065;-78
2023/09/05 07:01:56;;;;;;;;;;;20.70;99.90;;;;;;6693655;88;20081;-78
2023/09/05 07:11:57;;;;;;;;;;;21.10;99.90;;;;;;6689167;88;20119;-78
2023/09/05 07:21:57;;;;;;;;;;;21.60;99.90;;;;;;6689229;88;20131;-78
2023/09/05 07:31:58;;;;;;;;;;;22.10;99.90;;;;;;6692656;88;20058;-79
2023/09/05 07:41:59;;;;;;;;;;;22.40;99.90;;;;;;6692293;88;20080;-78
2023/09/05 07:52:00;;;;;;;;;;;22.70;99.90;;;;;;6689661;88;20057;-77
2023/09/05 08:02:01;;;;;;;;;;;23.00;99.90;;;;;;6692763;88;20059;-76
2023/09/05 08:12:02;;;;;;;;;;;23.30;99.90;;;;;;6688832;88;20510;-77
2023/09/05 08:22:04;;;;;;;;;;;23.80;99.90;;;;;;6689225;88;20060;-77
2023/09/05 08:32:05;;;;;;;;;;;24.10;99.90;;;;;;6692155;88;20559;-76
2023/09/05 08:42:08;;;;;;;;;;;24.40;99.90;;;;;;6686403;88;20134;-77
2023/09/05 08:52:10;;;;;;;;;;;24.80;99.90;;;;;;6687737;88;20113;-76
2023/09/05 09:02:17;;;;;;;;;;;25.30;99.70;;;;;;6686393;88;20064;-76
2023/09/05 09:12:17;;;;;;;;;;;25.70;99.20;;;;;;6692828;88;20174;-77
2023/09/05 09:22:21;;;;;;;;;;;26.00;99.20;;;;;;6688652;88;20543;-77
2023/09/05 09:32:24;;;;;;;;;;;26.90;98.30;;;;;;6689761;88;20143;-76
2023/09/05 09:42:24;;;;;;;;;;;26.20;98.20;;;;;;6688875;88;20194;-76
2023/09/05 09:52:29;;;;;;;;;;;26.50;98.10;;;;;;6689284;88;20109;-77
2023/09/05 10:02:30;;;;;;;;;;;27.10;97.30;;;;;;6694388;88;20644;-77
2023/09/05 10:12:31;;;;;;;;;;;27.10;98.00;;;;;;6690681;88;20064;-77
2023/09/05 10:22:32;;;;;;;;;;;28.10;96.90;;;;;;6689989;88;20079;-78
2023/09/05 10:32:33;;;;;;;;;;;28.10;96.00;;;;;;6692613;88;20060;-77
2023/09/05 10:42:34;;;;;;;;;;;28.00;95.90;;;;;;6693930;88;20077;-77
2023/09/05 10:52:35;;;;;;;;;;;28.40;95.50;;;;;;6689361;88;20194;-77
2023/09/05 11:02:37;;;;;;;;;;;28.60;95.20;;;;;;6692275;88;20062;-78
2023/09/05 11:12:38;;;;;;;;;;;29.20;94.40;;;;;;6695839;88;20064;-77
2023/09/05 11:22:38;;;;;;;;;;;29.30;94.30;;;;;;6691941;88;20069;-77
2023/09/05 11:32:39;;;;;;;;;;;29.80;93.70;;;;;;6696333;88;20140;-78
2023/09/05 11:42:40;;;;;;;;;;;30.10;93.60;;;;;;6694777;88;20085;-77
2023/09/05 11:52:42;;;;;;;;;;;29.70;93.60;;;;;;6692009;88;20547;-75
2023/09/05 12:02:43;;;;;;;;;;;30.40;92.30;;;;;;6691366;88;20055;-76
2023/09/05 12:12:51;;;;;;;;;;;31.60;92.70;;;;;;6691751;88;20167;-77
2023/09/05 12:22:52;;;;;;;;;;;31.40;91.30;;;;;;6690477;88;20056;-77
2023/09/05 12:32:56;;;;;;;;;;;31.40;91.30;;;;;;6689923;88;20073;-77
2023/09/05 12:42:56;;;;;;;;;;;32.00;90.90;;;;;;6691364;88;20230;-77
2023/09/05 12:52:58;;;;;;;;;;;32.70;90.00;;;;;;6691377;88;20076;-76
2023/09/05 13:03:00;;;;;;;;;;;32.00;86.60;;;;;;6693624;88;20538;-78
2023/09/05 13:13:01;;;;;;;;;;;31.90;87.30;;;;;;6695246;88;20517;-77
2023/09/05 13:23:02;;;;;;;;;;;32.60;85.40;;;;;;6700056;88;20069;-76
2023/09/05 13:33:02;;;;;;;;;;;32.90;84.10;;;;;;6693688;88;20149;-78
2023/09/05 13:43:03;;;;;;;;;;;32.40;83.20;;;;;;6694517;88;20073;-78
2023/09/05 13:53:04;;;;;;;;;;;32.50;82.70;;;;;;6694529;88;20102;-77
2023/09/05 14:03:04;;;;;;;;;;;33.00;83.10;;;;;;6694711;88;20205;-76
2023/09/05 14:13:05;;;;;;;;;;;32.40;80.80;;;;;;6696306;88;20081;-76
2023/09/05 14:23:05;;;;;;;;;;;32.60;80.50;;;;;;6697089;88;20574;-77
2023/09/05 14:33:07;;;;;;;;;;;32.10;80.50;;;;;;6694803;88;20068;-78
2023/09/05 14:43:08;;;;;;;;;;;32.50;80.40;;;;;;6694905;88;20051;-77
2023/09/05 14:53:08;;;;;;;;;;;31.70;80.30;;;;;;6693302;88;20498;-78
2023/09/05 15:03:09;;;;;;;;;;;32.20;82.10;;;;;;6695830;88;20047;-78
2023/09/05 15:13:10;;;;;;;;;;;32.00;81.60;;;;;;6697383;88;20079;-78
2023/09/05 15:23:10;;;;;;;;;;;32.20;81.70;;;;;;6695191;88;20096;-78
2023/09/05 15:33:11;;;;;;;;;;;31.90;80.90;;;;;;6697466;88;20101;-78
2023/09/05 15:43:11;;;;;;;;;;;31.70;81.00;;;;;;6692991;88;20071;-77
2023/09/05 15:53:13;;;;;;;;;;;31.20;80.80;;;;;;6690805;88;20080;-78
2023/09/05 16:03:13;;;;;;;;;;;31.30;81.50;;;;;;6690213;88;20154;-77
2023/09/05 16:13:14;;;;;;;;;;;31.30;82.30;;;;;;6706169;78;20528;-75
2023/09/05 16:23:14;;;;;;;;;;;31.10;83.60;;;;;;6720792;88;20105;-78
2023/09/05 16:33:15;;;;;;;;;;;30.70;84.80;;;;;;6719966;88;20099;-78
2023/09/05 16:43:16;;;;;;;;;;;30.40;86.90;;;;;;6717114;88;20090;-78
2023/09/05 16:53:17;;;;;;;;;;;30.00;88.40;;;;;;6716363;88;20048;-77
2023/09/05 17:03:17;;;;;;;;;;;29.70;89.20;;;;;;6716233;88;20063;-76
2023/09/05 17:13:17;;;;;;;;;;;29.40;89.70;;;;;;6718406;88;20635;-76
2023/09/05 17:23:19;;;;;;;;;;;28.90;90.40;;;;;;6720232;88;20046;-77
2023/09/05 17:33:20;;;;;;;;;;;28.50;90.60;;;;;;6721573;88;20111;-77
2023/09/05 17:43:20;;;;;;;;;;;28.20;91.00;;;;;;6719383;88;20072;-76
2023/09/05 17:53:21;;;;;;;;;;;27.80;91.50;;;;;;6725026;88;20073;-77
2023/09/05 18:03:22;;;;;;;;;;;27.40;93.50;;;;;;6724114;88;20075;-76
2023/09/05 18:13:23;;;;;;;;;;;26.70;94.10;;;;;;6719098;88;20112;-78
2023/09/05 18:23:23;;;;;;;;;;;26.40;94.80;;;;;;6720612;88;20126;-78
2023/09/05 18:33:24;;;;;;;;;;;25.90;95.60;;;;;;6720332;88;20101;-79
2023/09/05 18:43:24;;;;;;;;;;;25.50;95.80;;;;;;6719085;88;20633;-78
2023/09/05 18:53:26;;;;;;;;;;;25.20;96.90;;;;;;6714951;88;20118;-75
2023/09/05 19:03:27;;;;;;;;;;;24.80;99.00;;;;;;6712259;88;20059;-77
2023/09/05 19:13:27;;;;;;;;;;;24.30;99.90;;;;;;6724197;88;20224;-76
2023/09/05 19:23:28;;;;;;;;;;;24.10;99.90;;;;;;6732330;88;20157;-77
2023/09/05 19:33:29;;;;;;;;;;;24.00;99.90;;;;;;6724148;88;20180;-78
2023/09/05 19:43:29;;;;;;;;;;;23.60;99.90;;;;;;6722067;88;20124;-77
2023/09/05 19:53:30;;;;;;;;;;;23.20;99.90;;;;;;6718813;88;20147;-77
2023/09/05 20:03:32;;;;;;;;;;;22.90;99.90;;;;;;6726664;88;20189;-76
2023/09/05 20:13:34;;;;;;;;;;;22.60;99.90;;;;;;6715497;88;20075;-77
2023/09/05 20:23:35;;;;;;;;;;;22.40;99.90;;;;;;6719341;88;20085;-77
2023/09/05 20:33:35;;;;;;;;;;;22.10;99.90;;;;;;6718517;88;20087;-76
2023/09/05 20:43:37;;;;;;;;;;;21.90;99.90;;;;;;6717023;88;20094;-77
2023/09/05 20:53:38;;;;;;;;;;;21.80;99.90;;;;;;6731815;88;20047;-77
2023/09/05 21:03:39;;;;;;;;;;;21.60;99.90;;;;;;6723534;88;20102;-78
2023/09/05 21:13:39;;;;;;;;;;;21.50;99.90;;;;;;6720792;88;20228;-76
2023/09/05 21:23:40;;;;;;;;;;;21.80;99.90;;;;;;6723106;88;20070;-77
2023/09/05 21:33:40;;;;;;;;;;;21.70;99.90;;;;;;6720687;88;20556;-76
2023/09/05 21:43:41;;;;;;;;;;;21.60;99.90;;;;;;6720631;88;20070;-76
2023/09/05 21:53:41;;;;;;;;;;;21.90;99.90;;;;;;6713581;88;20594;-76
2023/09/05 22:03:41;;;;;;;;;;;21.50;99.90;;;;;;6717636;88;20069;-76
2023/09/05 22:13:42;;;;;;;;;;;21.30;99.90;;;;;;6709605;78;20072;-77
2023/09/05 22:23:44;;;;;;;;;;;21.10;99.90;;;;;;6706857;88;20096;-76
2023/09/05 22:33:46;;;;;;;;;;;20.80;99.90;;;;;;6719414;88;20080;-78
2023/09/05 22:43:46;;;;;;;;;;;20.60;99.90;;;;;;6718893;88;20067;-78
2023/09/05 22:53:46;;;;;;;;;;;20.80;99.90;;;;;;6707371;88;20085;-77
2023/09/05 23:03:47;;;;;;;;;;;21.10;99.90;;;;;;6710021;88;20079;-77
2023/09/05 23:13:48;;;;;;;;;;;21.10;99.90;;;;;;6707078;88;20067;-78
2023/09/05 23:23:48;;;;;;;;;;;21.00;99.90;;;;;;6713020;88;20060;-78
2023/09/05 23:33:49;;;;;;;;;;;20.70;99.90;;;;;;6711810;88;20086;-78
2023/09/05 23:43:49;;;;;;;;;;;20.50;99.90;;;;;;6711989;88;20133;-78
2023/09/05 23:53:50;;;;;;;;;;;20.60;99.90;;;;;;6717320;88;20092;-78
